createdAt,value
2023-03-28T00:01:32.975Z,98185.98
2023-03-28T00:04:03.543Z,98185.97
2023-03-28T00:06:35.150Z,98185.16
2023-03-28T00:09:08.601Z,98182.69
2023-03-28T00:11:38.752Z,98187.98
2023-03-28T00:14:09.512Z,98189.52
2023-03-28T00:16:47.477Z,98192.08
2023-03-28T00:19:18.172Z,98191.10
2023-03-28T00:21:48.888Z,98193.98
2023-03-28T00:24:23.525Z,98184.44
2023-03-28T00:26:55.009Z,98184.05
2023-03-28T00:29:26.549Z,98175.70
2023-03-28T00:31:58.382Z,98171.15
2023-03-28T00:34:29.110Z,98181.92
2023-03-28T00:36:58.808Z,98175.83
2023-03-28T00:39:27.995Z,98176.78
2023-03-28T00:42:02.131Z,98174.92
2023-03-28T00:44:51.287Z,98170.56
2023-03-28T00:47:42.005Z,98166.02
2023-03-28T00:53:57.444Z,98172.89
2023-03-28T00:56:26.554Z,98165.91
2023-03-28T00:58:53.852Z,98166.61
2023-03-28T01:01:21.455Z,98163.63
2023-03-28T01:03:55.810Z,98157.42
2023-03-28T01:06:25.238Z,98155.68
2023-03-28T01:08:56.554Z,98150.39
2023-03-28T01:11:24.364Z,98149.48
2023-03-28T01:13:53.007Z,98147.45
2023-03-28T01:16:22.831Z,98138.77
2023-03-28T01:18:53.144Z,98137.22
2023-03-28T01:21:28.414Z,98136.61
2023-03-28T01:24:17.882Z,98137.83
2023-03-28T01:27:06.692Z,98139.20
2023-03-28T01:29:49.138Z,98133.88
2023-03-28T01:32:39.102Z,98126.58
2023-03-28T01:35:33.340Z,98123.75
2023-03-28T01:38:10.510Z,98121.99
2023-03-28T01:40:55.522Z,98113.56
2023-03-28T01:43:28.258Z,98115.11
2023-03-28T01:46:08.510Z,98128.20
2023-03-28T01:48:47.090Z,98124.45
2023-03-28T01:51:23.250Z,98116.95
2023-03-28T01:54:12.147Z,98111.91
2023-03-28T01:57:09.969Z,98096.63
2023-03-28T02:00:13.212Z,98085.12
2023-03-28T02:03:02.367Z,98091.08
2023-03-28T02:05:35.712Z,98082.75
2023-03-28T02:08:04.974Z,98094.14
2023-03-28T02:10:55.511Z,98104.23
2023-03-28T02:14:09.305Z,98097.70
2023-03-28T02:16:43.463Z,98097.02
2023-03-28T02:19:29.398Z,98085.91
2023-03-28T02:22:25.469Z,98073.79
2023-03-28T02:24:58.798Z,98081.61
2023-03-28T02:27:47.104Z,98090.98
2023-03-28T02:30:38.116Z,98093.40
2023-03-28T02:33:39.780Z,98083.80
2023-03-28T02:36:29.398Z,98068.52
2023-03-28T02:38:59.234Z,98071.48
2023-03-28T02:41:34.787Z,98061.09
2023-03-28T02:44:16.878Z,98067.80
2023-03-28T02:47:22.979Z,98056.44
2023-03-28T02:50:04.957Z,98048.28
2023-03-28T02:52:50.128Z,98046.84
2023-03-28T02:55:47.297Z,98047.62
2023-03-28T02:58:46.025Z,98046.78
2023-03-28T03:01:14.272Z,98048.27
2023-03-28T03:03:43.489Z,98045.84
2023-03-28T03:06:12.072Z,98041.16
2023-03-28T03:08:44.121Z,98045.45
2023-03-28T03:11:13.670Z,98038.44
2023-03-28T03:13:44.338Z,98037.61
2023-03-28T03:16:19.353Z,98025.48
2023-03-28T03:18:47.333Z,98022.20
2023-03-28T03:21:14.466Z,98026.29
2023-03-28T03:23:43.799Z,98018.28
2023-03-28T03:26:11.764Z,98015.79
2023-03-28T03:28:47.252Z,98013.44
2023-03-28T03:31:14.746Z,98010.69
2023-03-28T03:34:05.561Z,98003.48
2023-03-28T03:36:38.293Z,97998.45
2023-03-28T03:39:07.153Z,97992.33
2023-03-28T03:41:34.660Z,97994.98
2023-03-28T03:44:01.869Z,97999.41
2023-03-28T03:46:31.380Z,97989.89
2023-03-28T03:49:02.409Z,97993.23
2023-03-28T03:51:29.751Z,97987.57
2023-03-28T03:53:58.140Z,97987.47
2023-03-28T03:56:42.786Z,97991.63
2023-03-28T03:59:11.161Z,97990.58
2023-03-28T04:01:43.606Z,97993.89
2023-03-28T04:04:25.123Z,97994.31
2023-03-28T04:07:16.162Z,97987.95
2023-03-28T04:09:46.568Z,97989.42
2023-03-28T04:12:15.338Z,97986.50
2023-03-28T04:14:48.441Z,97982.30
2023-03-28T04:17:40.764Z,97976.66
2023-03-28T04:20:13.404Z,97977.23
2023-03-28T04:23:18.084Z,97968.48
2023-03-28T04:25:49.486Z,97967.84
2023-03-28T04:28:25.382Z,97965.80
2023-03-28T04:30:59.915Z,97958.58
2023-03-28T04:33:33.371Z,97954.88
2023-03-28T04:36:09.054Z,97955.13
2023-03-28T04:38:45.325Z,97956.41
2023-03-28T04:41:39.748Z,97941.38
2023-03-28T04:44:09.919Z,97936.82
2023-03-28T04:46:46.028Z,97938.84
2023-03-28T04:49:17.221Z,97937.89
2023-03-28T04:51:50.935Z,97939.48
2023-03-28T04:54:19.730Z,97933.35
2023-03-28T04:56:49.846Z,97927.05
2023-03-28T04:59:36.368Z,97921.59
2023-03-28T05:02:05.405Z,97929.55
2023-03-28T05:04:53.934Z,97928.63
2023-03-28T05:07:22.236Z,97929.96
2023-03-28T05:09:49.965Z,97921.82
2023-03-28T05:12:20.874Z,97928.90
2023-03-28T05:14:58.174Z,97928.70
2023-03-28T05:17:29.161Z,97926.81
2023-03-28T05:20:10.652Z,97929.48
2023-03-28T05:22:59.454Z,97936.65
2023-03-28T05:25:29.937Z,97935.80
2023-03-28T05:28:01.384Z,97927.33
2023-03-28T05:30:30.753Z,97921.12
2023-03-28T05:33:00.130Z,97924.71
2023-03-28T05:35:30.913Z,97919.61
2023-03-28T05:37:58.037Z,97917.20
2023-03-28T05:40:26.037Z,97920.98
2023-03-28T05:42:54.832Z,97916.45
2023-03-28T05:45:27.753Z,97927.61
2023-03-28T05:48:12.405Z,97920.12
2023-03-28T05:50:50.554Z,97912.43
2023-03-28T05:53:18.312Z,97909.15
2023-03-28T05:55:48.914Z,97911.91
2023-03-28T05:58:21.365Z,97910.98
2023-03-28T06:00:51.010Z,97910.73
2023-03-28T06:03:25.353Z,97900.72
2023-03-28T06:05:55.049Z,97900.08
2023-03-28T06:08:27.895Z,97898.88
2023-03-28T06:10:59.912Z,97895.51
2023-03-28T06:13:30.792Z,97895.85
2023-03-28T06:15:58.911Z,97890.13
2023-03-28T06:18:41.564Z,97887.04
2023-03-28T06:21:11.609Z,97879.99
2023-03-28T06:23:43.484Z,97871.15
2023-03-28T06:26:20.314Z,97868.81
2023-03-28T06:28:49.546Z,97866.94
2023-03-28T06:31:22.668Z,97863.09
2023-03-28T06:33:55.420Z,97857.23
2023-03-28T06:36:22.700Z,97853.79
2023-03-28T06:38:51.780Z,97845.11
2023-03-28T06:41:21.712Z,97847.51
2023-03-28T06:43:50.118Z,97839.96
2023-03-28T06:46:58.601Z,97830.68
2023-03-28T06:49:26.998Z,97829.95
2023-03-28T06:52:02.059Z,97825.77
2023-03-28T06:54:31.192Z,97820.73
2023-03-28T06:56:58.828Z,97821.34
2023-03-28T06:59:27.446Z,97814.53
2023-03-28T07:01:59.899Z,97809.25
2023-03-28T07:04:40.442Z,97809.52
2023-03-28T07:07:11.229Z,97805.64
2023-03-28T07:09:42.253Z,97803.04
2023-03-28T07:12:13.511Z,97795.94
2023-03-28T07:14:44.488Z,97795.04
2023-03-28T07:17:14.148Z,97788.52
2023-03-28T07:19:46.609Z,97778.86
2023-03-28T07:22:15.581Z,97775.44
2023-03-28T07:24:42.669Z,97772.77
2023-03-28T07:27:25.027Z,97773.92
2023-03-28T07:29:54.847Z,97779.42
2023-03-28T07:32:33.233Z,97781.78
2023-03-28T07:35:08.160Z,97782.75
2023-03-28T07:37:40.541Z,97787.24
2023-03-28T07:40:30.720Z,97784.94
2023-03-28T07:42:58.814Z,97786.54
2023-03-28T07:45:31.750Z,97793.10
2023-03-28T07:47:59.203Z,97788.50
2023-03-28T07:50:26.733Z,97787.33
2023-03-28T07:53:00.532Z,97808.95
2023-03-28T07:55:37.218Z,97801.96
2023-03-28T07:58:16.502Z,97792.66
2023-03-28T08:00:46.805Z,97788.99
2023-03-28T08:03:38.754Z,97799.43
2023-03-28T08:06:28.479Z,97792.85
2023-03-28T08:08:58.631Z,97791.56
2023-03-28T08:11:37.695Z,97797.34
2023-03-28T08:14:06.167Z,97791.16
2023-03-28T08:16:34.148Z,97790.46
2023-03-28T08:19:10.846Z,97781.36
2023-03-28T08:22:02.055Z,97786.16
2023-03-28T08:24:36.091Z,97779.99
2023-03-28T08:27:20.594Z,97777.40
2023-03-28T08:29:52.795Z,97774.50
2023-03-28T08:32:31.296Z,97774.54
2023-03-28T08:35:02.322Z,97773.67
2023-03-28T08:37:31.189Z,97773.21
2023-03-28T08:40:00.322Z,97781.48
2023-03-28T08:43:12.436Z,97796.39
2023-03-28T08:45:43.414Z,97790.81
2023-03-28T08:48:37.534Z,97807.02
2023-03-28T08:51:18.120Z,97793.64
2023-03-28T08:53:53.519Z,97806.48
2023-03-28T08:56:21.408Z,97804.63
2023-03-28T08:59:33.252Z,97804.49
2023-03-28T09:02:00.815Z,97804.48
2023-03-28T09:04:34.570Z,97805.42
2023-03-28T09:07:38.778Z,97815.27
2023-03-28T09:10:28.590Z,97805.33
2023-03-28T09:13:33.900Z,97811.20
2023-03-28T09:16:23.342Z,97813.54
2023-03-28T09:22:47.969Z,97799.60
2023-03-28T09:26:03.428Z,97788.94
2023-03-28T09:29:02.368Z,97782.04
2023-03-28T09:31:35.633Z,97779.02
2023-03-28T09:34:16.119Z,97779.73
2023-03-28T09:36:50.546Z,97775.85
2023-03-28T09:39:53.310Z,97777.55
2023-03-28T09:42:48.300Z,97773.55
2023-03-28T09:46:12.676Z,97781.87
2023-03-28T09:49:00.061Z,97782.81
2023-03-28T09:51:44.426Z,97780.13
2023-03-28T09:54:20.292Z,97784.57
2023-03-28T09:56:52.099Z,97783.11
2023-03-28T09:59:38.635Z,97785.23
2023-03-28T10:02:31.818Z,97780.52
2023-03-28T10:05:05.543Z,97780.23
2023-03-28T10:07:44.504Z,97785.09
2023-03-28T10:10:24.622Z,97780.48
2023-03-28T10:13:03.448Z,97772.31
2023-03-28T10:15:42.951Z,97773.97
2023-03-28T10:18:35.433Z,97771.53
2023-03-28T10:21:17.872Z,97770.42
2023-03-28T10:24:04.913Z,97770.39
2023-03-28T10:26:34.114Z,97771.02
2023-03-28T10:29:06.208Z,97763.06
2023-03-28T10:31:41.707Z,97769.29
2023-03-28T10:34:30.618Z,97759.19
2023-03-28T10:37:25.687Z,97751.52
2023-03-28T10:40:21.039Z,97759.36
2023-03-28T10:43:13.969Z,97758.32
2023-03-28T10:46:21.319Z,97758.66
2023-03-28T10:49:14.229Z,97754.05
2023-03-28T10:51:48.427Z,97752.40
2023-03-28T10:54:24.090Z,97738.82
2023-03-28T10:57:01.990Z,97744.59
2023-03-28T11:00:06.867Z,97740.40
2023-03-28T11:03:22.183Z,97739.66
2023-03-28T11:06:32.949Z,97733.69
2023-03-28T11:09:38.884Z,97730.95
2023-03-28T11:12:51.163Z,97735.15
2023-03-28T11:15:31.904Z,97730.68
2023-03-28T11:18:50.087Z,97728.79
2023-03-28T11:21:42.851Z,97718.48
2023-03-28T11:24:25.600Z,97717.56
2023-03-28T11:27:39.327Z,97718.69
2023-03-28T11:30:29.917Z,97718.60
2023-03-28T11:34:02.487Z,97716.77
2023-03-28T11:36:58.276Z,97710.72
2023-03-28T11:39:48.101Z,97703.40
2023-03-28T11:42:31.146Z,97697.38
2023-03-28T11:45:15.939Z,97697.61
2023-03-28T11:47:46.901Z,97687.44
2023-03-28T11:50:51.076Z,97688.71
2023-03-28T11:53:49.996Z,97687.38
2023-03-28T11:56:29.402Z,97689.15
2023-03-28T11:59:11.818Z,97688.58
2023-03-28T12:01:43.722Z,97681.95
2023-03-28T12:04:19.236Z,97684.90
2023-03-28T12:07:08.609Z,97682.64
2023-03-28T12:10:19.088Z,97679.48
2023-03-28T12:13:06.385Z,97677.23
2023-03-28T12:16:07.184Z,97674.94
2023-03-28T12:18:55.137Z,97668.88
2023-03-28T12:21:41.171Z,97673.96
2023-03-28T12:24:26.315Z,97671.17
2023-03-28T12:27:27.695Z,97666.40
2023-03-28T12:33:00.962Z,97666.59
2023-03-28T12:35:56.905Z,97666.11
2023-03-28T12:38:39.702Z,97666.61
2023-03-28T12:41:32.113Z,97662.20
2023-03-28T12:44:11.687Z,97660.57
2023-03-28T12:47:41.112Z,97663.84
2023-03-28T12:50:47.928Z,97658.04
2023-03-28T12:58:22.760Z,97657.20
2023-03-28T13:06:19.178Z,97650.41
2023-03-28T13:09:43.410Z,97643.62
2023-03-28T13:12:31.324Z,97646.98
2023-03-28T13:15:42.533Z,97648.08
2023-03-28T13:18:21.594Z,97650.09
2023-03-28T13:20:51.788Z,97646.61
2023-03-28T13:23:44.298Z,97643.91
2023-03-28T13:26:16.221Z,97639.35
2023-03-28T13:28:51.303Z,97641.42
2023-03-28T13:31:41.133Z,97642.55
2023-03-28T13:34:23.026Z,97641.55
2023-03-28T13:36:54.843Z,97639.85
2023-03-28T13:40:14.250Z,97644.52
2023-03-28T13:43:02.070Z,97653.39
2023-03-28T13:45:35.352Z,97643.46
2023-03-28T13:48:13.075Z,97635.94
2023-03-28T13:50:41.637Z,97645.36
2023-03-28T13:53:12.291Z,97642.35
2023-03-28T13:55:43.628Z,97643.71
2023-03-28T13:58:19.130Z,97646.86
2023-03-28T14:00:48.661Z,97649.36
2023-03-28T14:03:18.314Z,97652.28
2023-03-28T14:05:47.761Z,97651.20
2023-03-28T14:08:22.084Z,97649.25
2023-03-28T14:10:52.699Z,97649.39
2023-03-28T14:13:26.375Z,97651.34
2023-03-28T14:15:55.592Z,97651.03
2023-03-28T14:18:47.708Z,97651.35
2023-03-28T14:21:17.524Z,97649.38
2023-03-28T14:23:58.372Z,97646.30
2023-03-28T14:26:39.341Z,97645.26
2023-03-28T14:29:17.348Z,97641.27
2023-03-28T14:31:58.333Z,97648.05
2023-03-28T14:34:30.481Z,97647.73
2023-03-28T14:37:11.979Z,97656.45
2023-03-28T14:39:55.126Z,97663.30
2023-03-28T14:42:32.177Z,97667.67
2023-03-28T14:45:02.237Z,97676.91
2023-03-28T14:50:17.489Z,97695.77
2023-03-28T14:52:49.761Z,97704.36
2023-03-28T14:55:28.322Z,97708.14
2023-03-28T14:57:58.301Z,97714.76
2023-03-28T15:00:43.132Z,97713.27
2023-03-28T15:03:46.844Z,97715.39
2023-03-28T15:06:17.348Z,97718.17
2023-03-28T15:08:46.815Z,97724.45
2023-03-28T15:11:35.856Z,97728.14
2023-03-28T15:14:38.228Z,97738.52
2023-03-28T15:17:07.386Z,97747.91
2023-03-28T15:19:39.780Z,97752.46
2023-03-28T15:22:10.295Z,97754.81
2023-03-28T15:24:46.325Z,97757.60
2023-03-28T15:27:46.813Z,97759.25
2023-03-28T15:30:19.792Z,97765.73
2023-03-28T15:32:53.856Z,97765.92
2023-03-28T15:44:05.595Z,97778.01
2023-03-28T15:46:38.069Z,97781.92
2023-03-28T15:49:08.295Z,97782.98
2023-03-28T15:52:05.210Z,97787.09
2023-03-28T15:54:35.972Z,97798.05
2023-03-28T15:57:04.538Z,97797.02
2023-03-28T15:59:45.196Z,97798.94
2023-03-28T16:02:25.940Z,97812.90
2023-03-28T16:07:57.515Z,97832.86
2023-03-28T16:10:26.305Z,97840.16
2023-03-28T16:13:14.816Z,97844.66
2023-03-28T16:16:07.483Z,97848.14
2023-03-28T16:19:01.206Z,97854.77
2023-03-28T16:21:42.392Z,97861.54
2023-03-28T16:24:13.834Z,97864.58
2023-03-28T16:26:46.587Z,97868.56
2023-03-28T16:29:14.707Z,97868.98
2023-03-28T16:31:48.585Z,97875.27
2023-03-28T16:34:20.809Z,97873.11
2023-03-28T16:36:57.864Z,97877.35
2023-03-28T16:39:28.190Z,97887.95
2023-03-28T16:41:56.511Z,97887.17
2023-03-28T16:44:28.585Z,97898.86
2023-03-28T16:47:05.294Z,97905.27
2023-03-28T16:49:32.682Z,97912.98
2023-03-28T16:52:01.660Z,97918.02
2023-03-28T16:54:30.745Z,97917.10
2023-03-28T16:57:00.137Z,97924.86
2023-03-28T16:59:33.731Z,97927.53
2023-03-28T17:02:03.867Z,97926.80
2023-03-28T17:04:33.671Z,97921.55
2023-03-28T17:07:02.833Z,97933.64
2023-03-28T17:09:35.285Z,97935.60
2023-03-28T17:12:03.856Z,97941.88
2023-03-28T17:14:42.952Z,97945.29
2023-03-28T17:17:11.937Z,97948.52
2023-03-28T17:19:43.890Z,97952.65
2023-03-28T17:22:15.379Z,97958.54
2023-03-28T17:24:46.165Z,97962.56
2023-03-28T17:27:15.590Z,97966.55
2023-03-28T17:29:44.152Z,97973.48
2023-03-28T17:32:11.992Z,97980.51
2023-03-28T17:34:41.468Z,97983.22
2023-03-28T17:37:15.798Z,97991.41
2023-03-28T17:39:47.246Z,97995.09
2023-03-28T17:42:18.050Z,98000.40
2023-03-28T17:44:50.255Z,98002.27
2023-03-28T17:47:26.661Z,98007.42
2023-03-28T17:49:59.979Z,98006.44
2023-03-28T17:52:32.596Z,98013.08
2023-03-28T17:55:06.548Z,98006.16
2023-03-28T17:57:40.157Z,98000.11
2023-03-28T18:00:11.745Z,98008.23
2023-03-28T18:02:50.929Z,98016.04
2023-03-28T18:05:40.723Z,98023.76
2023-03-28T18:08:14.398Z,98027.34
2023-03-28T18:10:59.574Z,98024.85
2023-03-28T18:13:50.639Z,98027.33
2023-03-28T18:19:46.739Z,98026.77
2023-03-28T18:22:18.521Z,98030.90
2023-03-28T18:24:51.222Z,98036.98
2023-03-28T18:27:26.115Z,98037.92
2023-03-28T18:30:05.462Z,98033.08
2023-03-28T18:32:40.675Z,98025.35
2023-03-28T18:35:13.775Z,98036.69
2023-03-28T18:37:57.126Z,98044.79
2023-03-28T18:40:30.525Z,98042.98
2023-03-28T18:42:59.806Z,98039.50
2023-03-28T18:45:29.623Z,98049.71
2023-03-28T18:47:58.401Z,98059.65
2023-03-28T18:50:29.353Z,98066.15
2023-03-28T18:52:58.482Z,98063.88
2023-03-28T18:55:30.309Z,98069.83
2023-03-28T18:58:00.318Z,98077.47
2023-03-28T19:00:30.044Z,98087.20
2023-03-28T19:03:19.441Z,98089.64
2023-03-28T19:05:47.766Z,98092.64
2023-03-28T19:08:15.384Z,98097.74
2023-03-28T19:10:55.453Z,98102.55
2023-03-28T19:13:25.010Z,98103.83
2023-03-28T19:16:03.834Z,98112.58
2023-03-28T19:18:52.795Z,98117.11
2023-03-28T19:21:25.739Z,98119.09
2023-03-28T19:23:57.166Z,98122.88
2023-03-28T19:26:28.786Z,98127.23
2023-03-28T19:29:01.578Z,98136.30
2023-03-28T19:31:42.024Z,98130.06
2023-03-28T19:34:45.603Z,98133.05
2023-03-28T19:37:18.414Z,98134.75
2023-03-28T19:39:58.117Z,98136.11
2023-03-28T19:42:25.468Z,98137.46
2023-03-28T19:45:01.541Z,98132.40
2023-03-28T19:47:41.385Z,98141.70
2023-03-28T19:50:11.153Z,98144.82
2023-03-28T19:52:42.500Z,98154.50
2023-03-28T19:55:20.635Z,98167.20
2023-03-28T19:57:49.472Z,98171.70
2023-03-28T20:00:20.834Z,98167.45
2023-03-28T20:02:52.381Z,98175.38
2023-03-28T20:05:22.484Z,98185.12
2023-03-28T20:07:52.657Z,98190.67
2023-03-28T20:10:23.287Z,98194.44
2023-03-28T20:12:50.923Z,98191.07
2023-03-28T20:15:22.437Z,98199.83
2023-03-28T20:17:57.582Z,98198.83
2023-03-28T20:20:28.080Z,98200.02
2023-03-28T20:23:09.591Z,98196.05
2023-03-28T20:25:42.412Z,98216.25
2023-03-28T20:28:12.603Z,98218.81
2023-03-28T20:30:44.252Z,98226.73
2023-03-28T20:33:16.408Z,98232.83
2023-03-28T20:36:02.440Z,98221.38
2023-03-28T20:38:32.239Z,98225.55
2023-03-28T20:41:02.607Z,98222.61
2023-03-28T20:43:40.098Z,98233.06
2023-03-28T20:46:13.154Z,98237.27
2023-03-28T20:48:46.788Z,98240.67
2023-03-28T20:51:18.763Z,98235.15
2023-03-28T20:53:55.947Z,98247.14
2023-03-28T20:56:28.670Z,98252.94
2023-03-28T20:58:58.815Z,98276.27
2023-03-28T21:01:32.235Z,98281.48
2023-03-28T21:04:06.887Z,98291.80
2023-03-28T21:06:46.000Z,98303.33
2023-03-28T21:09:18.076Z,98306.52
2023-03-28T21:11:45.777Z,98306.00
2023-03-28T21:14:16.609Z,98316.34
2023-03-28T21:16:44.775Z,98308.17
2023-03-28T21:19:13.870Z,98315.83
2023-03-28T21:21:46.666Z,98324.92
2023-03-28T21:24:15.237Z,98322.84
2023-03-28T21:26:42.414Z,98323.55
2023-03-28T21:29:10.398Z,98319.13
2023-03-28T21:31:38.063Z,98328.60
2023-03-28T21:34:09.148Z,98329.88
2023-03-28T21:36:37.236Z,98337.59
2023-03-28T21:39:05.793Z,98337.52
2023-03-28T21:41:42.426Z,98346.45
2023-03-28T21:44:12.875Z,98338.47
2023-03-28T21:46:40.614Z,98337.34
2023-03-28T21:49:11.264Z,98347.30
2023-03-28T21:51:38.337Z,98341.50
2023-03-28T21:54:10.261Z,98347.39
2023-03-28T21:56:38.674Z,98345.73
2023-03-28T21:59:08.957Z,98349.77
2023-03-28T22:01:39.781Z,98349.80
2023-03-28T22:04:07.266Z,98364.73
2023-03-28T22:06:35.854Z,98362.75
2023-03-28T22:09:04.528Z,98369.72
2023-03-28T22:11:34.509Z,98368.81
2023-03-28T22:14:04.450Z,98373.46
2023-03-28T22:16:42.100Z,98383.93
2023-03-28T22:19:09.268Z,98385.62
2023-03-28T22:21:36.459Z,98381.31
2023-03-28T22:24:13.148Z,98388.13
2023-03-28T22:26:44.454Z,98401.96
2023-03-28T22:29:12.865Z,98397.75
2023-03-28T22:31:41.406Z,98404.84
2023-03-28T22:34:10.551Z,98412.30
2023-03-28T22:36:38.597Z,98415.98
2023-03-28T22:39:17.162Z,98424.91
2023-03-28T22:41:45.767Z,98420.23
2023-03-28T22:44:14.405Z,98428.17
2023-03-28T22:46:43.920Z,98430.91
2023-03-28T22:49:13.052Z,98424.36
2023-03-28T22:51:45.584Z,98426.00
2023-03-28T22:54:26.649Z,98426.83
2023-03-28T22:56:55.491Z,98426.99
2023-03-28T22:59:23.979Z,98428.56
2023-03-28T23:01:51.273Z,98435.20
2023-03-28T23:04:18.894Z,98435.20
2023-03-28T23:06:50.062Z,98437.42
2023-03-28T23:09:18.681Z,98434.08
2023-03-28T23:11:56.403Z,98434.94
2023-03-28T23:14:25.663Z,98434.85
2023-03-28T23:16:52.590Z,98437.76
2023-03-28T23:19:30.725Z,98439.95
2023-03-28T23:21:59.484Z,98448.23
2023-03-28T23:24:27.212Z,98447.52
2023-03-28T23:26:55.147Z,98449.35
2023-03-28T23:29:23.585Z,98449.31
2023-03-28T23:31:51.460Z,98459.54
2023-03-28T23:34:18.672Z,98459.83
2023-03-28T23:36:46.637Z,98457.90
2023-03-28T23:39:13.989Z,98456.33
2023-03-28T23:41:41.343Z,98460.05
2023-03-28T23:44:09.126Z,98459.98
2023-03-28T23:46:36.448Z,98471.71
2023-03-28T23:49:05.453Z,98475.48
2023-03-28T23:51:32.839Z,98477.51
2023-03-28T23:54:01.460Z,98473.56
2023-03-28T23:56:31.066Z,98476.85
2023-03-28T23:58:58.866Z,98478.55
